New Hope, Minnesota
Current Conditions -  °F | °C
As of 12:30 AM on Saturday 27 Dec 2014 (Local Time) from KMIC Reporting Station
Light Snow Light Snow  
Wind Chill: 18°   Ceiling: 4000
Heat Index: 28°   Visibility: 3mi
Dew Point: 24°   Wind: 12mph
Humidity: 85%   Direction: 360°N
Pressure: 30.03"   Gusts: NA
Location:  45.0617°N, 93.3804°W
Report Text: KMIC 270630Z AUTO 36010KT 3SM -SN BR SCT011 BKN040 OVC070 M02/M04 A3003 RMK AO2 P0000 T10221044
Loading
Personal Weather Stations






























Interactive Weather Map New forecast layout! Learn more

10-Day Weather Forecast

Advertisements
Track Severe Weather on mobile